createdAt,value
2023-05-25T00:01:08.772Z,4.70
2023-05-25T00:03:36.170Z,4.77
2023-05-25T00:06:03.164Z,4.63
2023-05-25T00:08:30.054Z,3.90
2023-05-25T00:10:57.012Z,4.97
2023-05-25T00:13:23.844Z,4.00
2023-05-25T00:15:50.947Z,5.00
2023-05-25T00:18:18.478Z,4.47
2023-05-25T00:20:45.954Z,4.77
2023-05-25T00:23:12.744Z,5.97
2023-05-25T00:25:39.629Z,4.27
2023-05-25T00:28:06.426Z,4.33
2023-05-25T00:30:33.248Z,4.27
2023-05-25T00:33:01.462Z,3.30
2023-05-25T00:35:28.743Z,4.40
2023-05-25T00:37:55.888Z,4.77
2023-05-25T00:40:22.775Z,4.53
2023-05-25T00:42:50.634Z,4.60
2023-05-25T00:45:17.468Z,6.13
2023-05-25T00:47:45.573Z,5.77
2023-05-25T00:50:15.355Z,5.10
2023-05-25T00:52:42.276Z,4.87
2023-05-25T00:55:11.720Z,4.83
2023-05-25T00:57:41.552Z,5.30
2023-05-25T01:00:11.474Z,4.33
2023-05-25T01:02:41.175Z,4.63
2023-05-25T01:05:10.808Z,4.37
2023-05-25T01:07:39.268Z,5.93
2023-05-25T01:10:07.088Z,5.23
2023-05-25T01:12:42.200Z,4.90
2023-05-25T01:15:10.174Z,5.30
2023-05-25T01:17:39.901Z,5.00
2023-05-25T01:20:11.296Z,3.80
2023-05-25T01:22:54.456Z,5.17
2023-05-25T01:25:34.170Z,5.50
2023-05-25T01:28:08.007Z,4.97
2023-05-25T01:30:36.638Z,5.30
2023-05-25T01:33:05.127Z,5.50
2023-05-25T01:35:33.134Z,5.03
2023-05-25T01:38:00.046Z,4.90
2023-05-25T01:40:27.729Z,6.50
2023-05-25T01:42:54.540Z,5.40
2023-05-25T01:45:21.785Z,5.03
2023-05-25T01:48:25.632Z,5.63
2023-05-25T01:50:59.186Z,5.37
2023-05-25T01:53:38.323Z,5.90
2023-05-25T01:56:11.521Z,5.80
2023-05-25T01:58:46.844Z,6.37
2023-05-25T02:01:16.031Z,6.10
2023-05-25T02:03:43.407Z,5.83
2023-05-25T02:06:10.522Z,5.50
2023-05-25T02:08:37.326Z,4.93
2023-05-25T02:11:04.310Z,6.00
2023-05-25T02:13:31.045Z,6.33
2023-05-25T02:15:57.786Z,7.13
2023-05-25T02:18:24.705Z,6.17
2023-05-25T02:20:51.851Z,5.50
2023-05-25T02:23:19.084Z,5.60
2023-05-25T02:25:46.605Z,5.97
2023-05-25T02:28:14.330Z,5.80
2023-05-25T02:30:41.082Z,6.57
2023-05-25T02:33:07.911Z,6.13
2023-05-25T02:35:35.008Z,5.53
2023-05-25T02:38:01.931Z,5.83
2023-05-25T02:40:28.740Z,5.90
2023-05-25T02:42:55.653Z,7.00
2023-05-25T02:45:22.438Z,6.83
2023-05-25T02:47:49.245Z,6.63
2023-05-25T02:50:16.121Z,5.60
2023-05-25T02:52:42.954Z,5.80
2023-05-25T02:55:10.418Z,5.93
2023-05-25T02:57:38.877Z,6.03
2023-05-25T03:00:12.264Z,6.80
2023-05-25T03:02:39.496Z,7.30
2023-05-25T03:05:07.584Z,6.47
2023-05-25T03:07:34.789Z,5.73
2023-05-25T03:10:01.684Z,7.13
2023-05-25T03:12:28.429Z,5.97
2023-05-25T03:14:55.367Z,6.83
2023-05-25T03:17:22.208Z,5.77
2023-05-25T03:19:49.052Z,6.47
2023-05-25T03:22:15.946Z,7.00
2023-05-25T03:24:42.730Z,6.43
2023-05-25T03:27:09.541Z,7.23
2023-05-25T03:29:36.364Z,7.70
2023-05-25T03:32:03.338Z,6.80
2023-05-25T03:34:30.393Z,9.03
2023-05-25T03:36:57.245Z,5.90
2023-05-25T03:39:24.033Z,6.87
2023-05-25T03:41:51.375Z,7.23
2023-05-25T03:44:18.228Z,7.20
2023-05-25T03:46:45.294Z,7.97
2023-05-25T03:49:14.065Z,7.93
2023-05-25T03:51:41.765Z,7.87
2023-05-25T03:54:08.852Z,8.20
2023-05-25T03:56:35.837Z,7.30
2023-05-25T03:59:02.703Z,6.90
2023-05-25T04:01:30.105Z,8.47
2023-05-25T04:03:57.275Z,7.90
2023-05-25T04:06:25.532Z,7.87
2023-05-25T04:08:53.257Z,7.30
2023-05-25T04:11:21.155Z,8.03
2023-05-25T04:13:48.086Z,8.30
2023-05-25T04:16:14.993Z,8.20
2023-05-25T04:18:41.893Z,7.70
2023-05-25T04:21:08.813Z,7.43
2023-05-25T04:23:35.845Z,8.50
2023-05-25T04:26:03.361Z,8.00
2023-05-25T04:28:30.750Z,7.97
2023-05-25T04:30:57.678Z,8.20
2023-05-25T04:33:24.867Z,8.40
2023-05-25T04:35:51.952Z,8.40
2023-05-25T04:38:18.744Z,8.27
2023-05-25T04:40:46.466Z,8.70
2023-05-25T04:43:13.746Z,9.70
2023-05-25T04:45:40.693Z,9.33
2023-05-25T04:48:07.621Z,9.53
2023-05-25T04:50:34.555Z,8.83
2023-05-25T04:53:01.329Z,8.73
2023-05-25T04:55:28.138Z,7.80
2023-05-25T04:57:55.025Z,9.47
2023-05-25T05:00:22.159Z,8.80
2023-05-25T05:02:49.964Z,8.80
2023-05-25T05:05:17.456Z,10.00
2023-05-25T05:07:44.360Z,9.23
2023-05-25T05:10:11.504Z,9.73
2023-05-25T05:12:38.312Z,9.20
2023-05-25T05:15:05.667Z,10.50
2023-05-25T05:17:32.532Z,10.03
2023-05-25T05:19:59.466Z,8.90
2023-05-25T05:22:27.273Z,8.60
2023-05-25T05:24:54.066Z,10.33
2023-05-25T05:27:20.932Z,11.53
2023-05-25T05:29:47.679Z,10.13
2023-05-25T05:32:14.534Z,11.73
2023-05-25T05:34:41.313Z,10.10
2023-05-25T05:37:08.130Z,9.20
2023-05-25T05:39:35.046Z,10.33
2023-05-25T05:42:01.895Z,9.40
2023-05-25T05:44:29.510Z,9.30
2023-05-25T05:47:01.372Z,10.97
2023-05-25T05:49:29.421Z,8.70
2023-05-25T05:51:56.402Z,10.37
2023-05-25T05:54:23.439Z,9.63
2023-05-25T05:56:51.381Z,9.60
2023-05-25T05:59:18.421Z,9.77
2023-05-25T06:01:45.655Z,9.10
2023-05-25T06:04:12.578Z,10.03
2023-05-25T06:06:40.640Z,10.87
2023-05-25T06:09:07.483Z,9.27
2023-05-25T06:11:37.420Z,9.30
2023-05-25T06:14:04.620Z,9.07
2023-05-25T06:16:31.539Z,9.77
2023-05-25T06:18:58.657Z,9.93
2023-05-25T06:21:25.491Z,11.17
2023-05-25T06:23:52.241Z,11.57
2023-05-25T06:26:19.050Z,8.83
2023-05-25T06:28:47.711Z,9.70
2023-05-25T06:31:14.622Z,9.13
2023-05-25T06:33:41.555Z,11.20
2023-05-25T06:36:09.172Z,10.17
2023-05-25T06:38:36.038Z,10.50
2023-05-25T06:41:04.873Z,10.47
2023-05-25T06:43:32.321Z,11.30
2023-05-25T06:45:59.362Z,10.40
2023-05-25T06:48:26.537Z,11.73
2023-05-25T06:50:53.312Z,9.60
2023-05-25T06:53:20.070Z,11.20
2023-05-25T06:55:46.926Z,8.80
2023-05-25T06:58:32.496Z,11.57
2023-05-25T07:01:01.065Z,9.13
2023-05-25T07:03:28.016Z,9.10
2023-05-25T07:05:55.169Z,9.97
2023-05-25T07:08:21.976Z,10.77
2023-05-25T07:10:50.189Z,10.00
2023-05-25T07:13:17.402Z,10.83
2023-05-25T07:15:44.773Z,9.63
2023-05-25T07:18:12.695Z,10.33
2023-05-25T07:20:44.033Z,9.90
2023-05-25T07:23:12.225Z,9.07
2023-05-25T07:25:40.699Z,9.80
2023-05-25T07:28:08.376Z,9.67
2023-05-25T07:30:35.222Z,11.40
2023-05-25T07:33:02.124Z,10.37
2023-05-25T07:35:29.078Z,9.13
2023-05-25T07:38:14.150Z,10.00
2023-05-25T07:40:40.902Z,10.00
2023-05-25T07:43:09.047Z,12.13
2023-05-25T07:45:35.919Z,9.63
2023-05-25T07:48:02.775Z,9.70
2023-05-25T07:50:31.666Z,9.63
2023-05-25T07:53:00.197Z,10.80
2023-05-25T07:55:27.466Z,10.07
2023-05-25T07:57:54.251Z,10.40
2023-05-25T08:00:21.480Z,10.63
2023-05-25T08:02:49.619Z,10.33
2023-05-25T08:05:16.911Z,9.73
2023-05-25T08:07:44.965Z,10.07
2023-05-25T08:10:11.986Z,9.53
2023-05-25T08:12:48.736Z,10.77
2023-05-25T08:15:16.963Z,10.00
2023-05-25T08:17:44.303Z,10.10
2023-05-25T08:20:11.873Z,10.73
2023-05-25T08:22:38.653Z,9.70
2023-05-25T08:25:06.843Z,10.00
2023-05-25T08:27:35.783Z,10.27
2023-05-25T08:30:05.796Z,8.93
2023-05-25T08:32:32.770Z,9.33
2023-05-25T08:34:59.717Z,9.17
2023-05-25T08:37:30.687Z,8.10
2023-05-25T08:39:57.689Z,10.07
2023-05-25T08:42:24.641Z,11.50
2023-05-25T08:44:51.471Z,10.10
2023-05-25T08:47:22.717Z,9.63
2023-05-25T08:49:50.983Z,10.27
2023-05-25T08:52:23.069Z,9.60
2023-05-25T08:54:53.690Z,9.13
2023-05-25T08:57:46.094Z,7.27
2023-05-25T09:00:15.608Z,9.27
2023-05-25T09:02:51.278Z,9.00
2023-05-25T09:05:18.948Z,9.90
2023-05-25T09:07:46.681Z,8.57
2023-05-25T09:10:15.076Z,9.67
2023-05-25T09:12:42.774Z,8.60
2023-05-25T09:15:13.184Z,8.77
2023-05-25T09:17:41.457Z,9.07
2023-05-25T09:20:11.136Z,8.80
2023-05-25T09:22:38.415Z,9.33
2023-05-25T09:25:08.412Z,9.97
2023-05-25T09:27:37.416Z,7.47
2023-05-25T09:30:05.222Z,7.50
2023-05-25T09:36:22.060Z,8.77
2023-05-25T09:38:49.258Z,7.87
2023-05-25T09:41:16.465Z,8.20
2023-05-25T09:43:48.921Z,7.50
2023-05-25T09:46:24.925Z,7.73
2023-05-25T09:48:53.535Z,7.87
2023-05-25T09:51:21.705Z,8.23
2023-05-25T09:53:48.894Z,8.40
2023-05-25T09:56:17.380Z,7.73
2023-05-25T09:58:44.920Z,9.07
2023-05-25T10:01:11.889Z,8.37
2023-05-25T10:04:02.935Z,8.47
2023-05-25T10:06:33.500Z,8.63
2023-05-25T10:09:01.578Z,7.73
2023-05-25T10:11:29.401Z,9.67
2023-05-25T10:13:56.859Z,8.37
2023-05-25T10:16:27.288Z,8.70
2023-05-25T10:19:06.334Z,8.17
2023-05-25T10:21:36.833Z,8.97
2023-05-25T10:24:25.151Z,9.27
2023-05-25T10:26:54.543Z,8.00
2023-05-25T10:29:22.169Z,8.83
2023-05-25T10:31:49.912Z,9.30
2023-05-25T10:34:17.245Z,7.53
2023-05-25T10:36:44.069Z,7.07
2023-05-25T10:39:11.631Z,9.80
2023-05-25T10:41:38.438Z,8.30
2023-05-25T10:44:05.687Z,8.70
2023-05-25T10:46:32.545Z,8.40
2023-05-25T10:49:02.447Z,7.90
2023-05-25T10:51:39.646Z,8.57
2023-05-25T10:54:06.526Z,8.67
2023-05-25T10:56:33.844Z,7.83
2023-05-25T10:59:02.084Z,8.87
2023-05-25T11:01:33.536Z,8.00
2023-05-25T11:04:09.470Z,8.90
2023-05-25T11:06:40.500Z,8.63
2023-05-25T11:09:07.764Z,7.80
2023-05-25T11:11:43.577Z,9.60
2023-05-25T11:14:31.472Z,8.80
2023-05-25T11:17:10.676Z,8.20
2023-05-25T11:19:51.055Z,7.23
2023-05-25T11:22:21.280Z,7.27
2023-05-25T11:24:49.219Z,8.37
2023-05-25T11:27:16.289Z,7.53
2023-05-25T11:29:43.625Z,8.20
2023-05-25T11:32:14.949Z,8.57
2023-05-25T11:34:46.741Z,8.40
2023-05-25T11:37:17.403Z,7.77
2023-05-25T11:39:51.627Z,8.17
2023-05-25T11:42:21.448Z,7.77
2023-05-25T11:44:48.434Z,8.30
2023-05-25T11:47:18.728Z,8.30
2023-05-25T11:49:47.663Z,7.63
2023-05-25T11:52:19.607Z,7.47
2023-05-25T11:54:46.814Z,7.83
2023-05-25T11:57:18.819Z,8.30
2023-05-25T11:59:49.948Z,7.60
2023-05-25T12:02:17.606Z,8.03
2023-05-25T12:04:55.854Z,8.00
2023-05-25T12:07:23.562Z,8.20
2023-05-25T12:09:50.401Z,7.67
2023-05-25T12:12:17.335Z,6.90
2023-05-25T12:14:49.240Z,6.60
2023-05-25T12:17:18.411Z,8.13
2023-05-25T12:19:45.670Z,9.97
2023-05-25T12:22:13.253Z,9.37
2023-05-25T12:24:41.076Z,8.40
2023-05-25T12:27:18.036Z,7.57
2023-05-25T12:29:48.449Z,8.83
2023-05-25T12:32:16.385Z,9.20
2023-05-25T12:34:43.249Z,8.97
2023-05-25T12:37:23.362Z,9.03
2023-05-25T12:39:50.781Z,8.73
2023-05-25T12:42:18.094Z,8.00
2023-05-25T12:44:46.557Z,7.13
2023-05-25T12:47:14.710Z,8.90
2023-05-25T12:49:43.980Z,8.00
2023-05-25T12:52:11.482Z,7.90
2023-05-25T12:54:46.635Z,7.80
2023-05-25T12:57:17.715Z,8.07
2023-05-25T12:59:46.452Z,7.03
2023-05-25T13:02:14.656Z,8.97
2023-05-25T13:04:42.404Z,8.70
2023-05-25T13:07:10.053Z,6.83
2023-05-25T13:09:37.385Z,7.23
2023-05-25T13:12:04.969Z,6.90
2023-05-25T13:14:31.837Z,8.23
2023-05-25T13:16:58.761Z,7.20
2023-05-25T13:19:26.905Z,7.90
2023-05-25T13:21:55.890Z,7.90
2023-05-25T13:24:23.111Z,7.37
2023-05-25T13:26:51.071Z,6.43
2023-05-25T13:29:18.424Z,8.90
2023-05-25T13:31:46.962Z,8.17
2023-05-25T13:34:13.904Z,6.40
2023-05-25T13:36:40.660Z,6.73
2023-05-25T13:39:10.754Z,6.03
2023-05-25T13:41:37.573Z,7.00
2023-05-25T13:44:04.338Z,7.17
2023-05-25T13:46:35.055Z,8.37
2023-05-25T13:49:03.582Z,7.77
2023-05-25T13:51:30.499Z,6.50
2023-05-25T13:53:57.238Z,5.90
2023-05-25T13:56:24.116Z,6.90
2023-05-25T13:58:50.942Z,6.67
2023-05-25T14:01:17.776Z,6.40
2023-05-25T14:03:45.779Z,6.70
2023-05-25T14:06:12.713Z,7.10
2023-05-25T14:08:39.537Z,6.10
2023-05-25T14:11:06.380Z,5.97
2023-05-25T14:13:33.572Z,6.13
2023-05-25T14:16:01.189Z,6.97
2023-05-25T14:18:28.066Z,8.10
2023-05-25T14:20:54.926Z,5.73
2023-05-25T14:23:21.807Z,5.70
2023-05-25T14:25:49.861Z,6.00
2023-05-25T14:28:16.725Z,5.87
2023-05-25T14:30:43.515Z,6.40
2023-05-25T14:33:14.159Z,6.30
2023-05-25T14:35:44.917Z,5.60
2023-05-25T14:38:11.871Z,6.97
2023-05-25T14:40:38.699Z,5.40
2023-05-25T14:43:05.622Z,5.87
2023-05-25T14:45:32.548Z,5.90
2023-05-25T14:48:08.254Z,6.10
2023-05-25T14:50:44.217Z,6.20
2023-05-25T14:53:12.053Z,4.80
2023-05-25T14:55:38.892Z,5.20
2023-05-25T14:58:05.727Z,5.47
2023-05-25T15:00:32.528Z,6.27
2023-05-25T15:02:59.560Z,4.90
2023-05-25T15:05:26.649Z,5.53
2023-05-25T15:07:53.406Z,5.73
2023-05-25T15:10:20.176Z,5.90
2023-05-25T15:12:46.963Z,5.20
2023-05-25T15:15:14.787Z,9.90
2023-05-25T15:17:41.979Z,5.53
2023-05-25T15:20:49.597Z,6.87
2023-05-25T15:23:16.821Z,6.60
2023-05-25T15:25:43.581Z,6.23
2023-05-25T15:28:10.352Z,6.07
2023-05-25T15:30:37.116Z,7.80
2023-05-25T15:33:04.000Z,7.47
2023-05-25T15:35:33.522Z,7.10
2023-05-25T15:38:01.227Z,7.20
2023-05-25T15:40:28.196Z,7.70
2023-05-25T15:42:55.008Z,5.23
2023-05-25T15:45:21.989Z,6.07
2023-05-25T15:47:49.535Z,5.70
2023-05-25T15:50:16.655Z,6.70
2023-05-25T15:52:43.505Z,6.20
2023-05-25T15:55:10.461Z,5.80
2023-05-25T15:57:37.206Z,5.23
2023-05-25T16:00:07.945Z,6.80
2023-05-25T16:02:34.728Z,7.07
2023-05-25T16:05:01.447Z,6.67
2023-05-25T16:07:28.249Z,6.83
2023-05-25T16:09:54.979Z,5.67
2023-05-25T16:12:24.757Z,5.03
2023-05-25T16:14:52.372Z,6.20
2023-05-25T16:17:19.391Z,6.40
2023-05-25T16:19:46.619Z,5.47
2023-05-25T16:22:13.463Z,5.80
2023-05-25T16:24:40.313Z,6.70
2023-05-25T16:27:07.128Z,6.27
2023-05-25T16:29:33.990Z,5.30
2023-05-25T16:32:00.788Z,6.40
2023-05-25T16:34:27.860Z,6.00
2023-05-25T16:36:54.588Z,5.67
2023-05-25T16:39:21.429Z,5.60
2023-05-25T16:41:50.630Z,6.17
2023-05-25T16:44:17.769Z,5.87
2023-05-25T16:46:44.635Z,5.70
2023-05-25T16:49:11.387Z,5.93
2023-05-25T16:51:38.129Z,6.77
2023-05-25T16:54:05.134Z,5.93
2023-05-25T16:56:31.863Z,6.20
2023-05-25T16:58:58.600Z,5.80
2023-05-25T17:01:25.422Z,5.70
2023-05-25T17:03:52.287Z,5.83
2023-05-25T17:06:19.074Z,6.23
2023-05-25T17:08:45.858Z,5.53
2023-05-25T17:11:12.767Z,5.37
2023-05-25T17:13:39.584Z,5.43
2023-05-25T17:16:06.467Z,5.93
2023-05-25T17:18:33.596Z,5.57
2023-05-25T17:21:01.876Z,5.10
2023-05-25T17:23:28.720Z,5.60
2023-05-25T17:25:55.780Z,5.80
2023-05-25T17:28:22.579Z,5.83
2023-05-25T17:30:49.403Z,5.80
2023-05-25T17:33:16.223Z,5.43
2023-05-25T17:35:43.307Z,6.00
2023-05-25T17:38:10.813Z,5.63
2023-05-25T17:40:37.707Z,5.57
2023-05-25T17:43:04.461Z,5.47
2023-05-25T17:45:31.204Z,5.40
2023-05-25T17:47:58.374Z,4.80
2023-05-25T17:50:25.655Z,5.10
2023-05-25T17:52:52.600Z,5.50
2023-05-25T17:55:20.593Z,5.40
2023-05-25T17:57:47.358Z,5.17
2023-05-25T18:00:14.872Z,5.70
2023-05-25T18:02:41.948Z,5.50
2023-05-25T18:05:09.022Z,5.83
2023-05-25T18:07:35.751Z,5.27
2023-05-25T18:10:02.595Z,4.80
2023-05-25T18:12:29.360Z,4.83
2023-05-25T18:14:56.110Z,6.10
2023-05-25T18:17:22.970Z,5.70
2023-05-25T18:19:49.764Z,5.53
2023-05-25T18:22:16.819Z,5.20
2023-05-25T18:24:43.576Z,4.57
2023-05-25T18:27:10.526Z,5.50
2023-05-25T18:29:37.214Z,4.60
2023-05-25T18:32:04.078Z,5.80
2023-05-25T18:34:30.824Z,5.07
2023-05-25T18:36:57.554Z,5.57
2023-05-25T18:39:24.302Z,4.63
2023-05-25T18:41:51.152Z,5.97
2023-05-25T18:44:17.914Z,5.30
2023-05-25T18:46:47.082Z,6.00
2023-05-25T18:49:13.851Z,5.70
2023-05-25T18:51:40.845Z,5.60
2023-05-25T18:54:08.956Z,5.63
2023-05-25T18:56:35.782Z,5.47
2023-05-25T18:59:02.609Z,5.77
2023-05-25T19:01:29.468Z,5.40
2023-05-25T19:03:58.587Z,6.53
2023-05-25T19:06:27.113Z,6.30
2023-05-25T19:08:55.270Z,5.53
2023-05-25T19:11:22.324Z,7.43
2023-05-25T19:13:49.073Z,6.57
2023-05-25T19:16:16.026Z,5.77
2023-05-25T19:18:42.830Z,6.17
2023-05-25T19:21:09.598Z,7.60
2023-05-25T19:23:36.369Z,6.20
2023-05-25T19:26:03.195Z,5.77
2023-05-25T19:28:30.995Z,6.37
2023-05-25T19:30:57.775Z,6.70
2023-05-25T19:33:24.516Z,6.17
2023-05-25T19:35:51.416Z,5.27
2023-05-25T19:38:18.274Z,5.73
2023-05-25T19:40:45.101Z,6.07
2023-05-25T19:43:11.869Z,5.80
2023-05-25T19:45:38.663Z,6.20
2023-05-25T19:48:05.511Z,6.13
2023-05-25T19:50:33.384Z,6.67
2023-05-25T19:53:01.017Z,6.80
2023-05-25T19:55:27.970Z,6.63
2023-05-25T19:57:54.734Z,18.83
2023-05-25T20:00:26.692Z,16.83
2023-05-25T20:02:54.078Z,12.40
2023-05-25T20:05:21.038Z,10.53
2023-05-25T20:07:47.906Z,7.93
2023-05-25T20:10:14.704Z,7.87
2023-05-25T20:12:41.560Z,6.87
2023-05-25T20:15:08.653Z,10.13
2023-05-25T20:17:35.565Z,13.90
2023-05-25T20:20:03.890Z,12.90
2023-05-25T20:22:32.243Z,8.80
2023-05-25T20:25:00.745Z,7.50
2023-05-25T20:27:28.368Z,7.60
2023-05-25T20:29:55.397Z,7.40
2023-05-25T20:32:22.231Z,7.33
2023-05-25T20:34:48.985Z,7.27
2023-05-25T20:37:17.093Z,8.63
2023-05-25T20:39:43.980Z,8.23
2023-05-25T20:42:13.999Z,8.37
2023-05-25T20:44:40.778Z,9.67
2023-05-25T20:47:07.687Z,8.37
2023-05-25T20:49:34.474Z,9.00
2023-05-25T20:52:01.504Z,7.87
2023-05-25T20:54:28.309Z,8.13
2023-05-25T20:56:55.111Z,9.63
2023-05-25T20:59:22.189Z,8.87
2023-05-25T21:01:49.105Z,9.73
2023-05-25T21:04:16.244Z,9.63
2023-05-25T21:06:43.042Z,9.60
2023-05-25T21:09:09.954Z,8.83
2023-05-25T21:11:37.014Z,9.37
2023-05-25T21:14:03.823Z,9.00
2023-05-25T21:16:30.859Z,9.17
2023-05-25T21:18:57.636Z,8.57
2023-05-25T21:21:24.407Z,9.20
2023-05-25T21:23:51.240Z,8.43
2023-05-25T21:26:17.946Z,7.67
2023-05-25T21:28:44.769Z,8.13
2023-05-25T21:31:17.629Z,9.17
2023-05-25T21:33:45.845Z,9.70
2023-05-25T21:36:12.825Z,8.30
2023-05-25T21:38:39.931Z,8.23
2023-05-25T21:41:06.994Z,9.90
2023-05-25T21:43:34.434Z,9.00
2023-05-25T21:46:01.245Z,9.77
2023-05-25T21:48:28.467Z,9.13
2023-05-25T21:50:55.389Z,9.13
2023-05-25T21:53:22.163Z,9.07
2023-05-25T21:55:49.208Z,9.40
2023-05-25T21:58:17.745Z,9.07
2023-05-25T22:00:45.045Z,8.47
2023-05-25T22:03:12.357Z,8.73
2023-05-25T22:05:39.261Z,9.50
2023-05-25T22:08:06.257Z,9.23
2023-05-25T22:10:33.068Z,8.20
2023-05-25T22:12:59.852Z,7.33
2023-05-25T22:15:26.741Z,6.83
2023-05-25T22:17:54.732Z,7.07
2023-05-25T22:20:21.681Z,7.87
2023-05-25T22:22:48.452Z,8.10
2023-05-25T22:25:15.480Z,7.80
2023-05-25T22:27:42.233Z,7.07
2023-05-25T22:30:09.508Z,7.50
2023-05-25T22:32:36.557Z,8.30
2023-05-25T22:35:03.507Z,8.30
2023-05-25T22:37:30.352Z,7.30
2023-05-25T22:39:57.429Z,7.90
2023-05-25T22:42:24.288Z,7.27
2023-05-25T22:44:51.414Z,8.90
2023-05-25T22:47:18.281Z,8.27
2023-05-25T22:49:45.333Z,7.47
2023-05-25T22:52:12.490Z,8.10
2023-05-25T22:54:39.328Z,7.60
2023-05-25T22:57:06.848Z,9.10
2023-05-25T22:59:33.619Z,7.50
2023-05-25T23:02:00.634Z,8.00
2023-05-25T23:04:27.489Z,7.80
2023-05-25T23:06:54.280Z,7.80
2023-05-25T23:09:21.105Z,7.30
2023-05-25T23:11:47.928Z,7.80
2023-05-25T23:14:15.089Z,7.77
2023-05-25T23:16:41.993Z,7.00
2023-05-25T23:19:08.870Z,7.87
2023-05-25T23:21:35.647Z,7.10
2023-05-25T23:24:02.457Z,7.67
2023-05-25T23:26:29.258Z,7.57
2023-05-25T23:28:56.114Z,7.50
2023-05-25T23:31:23.035Z,7.67
2023-05-25T23:33:49.868Z,7.40
2023-05-25T23:36:16.892Z,7.80
2023-05-25T23:38:45.821Z,7.90
2023-05-25T23:41:12.816Z,7.80
2023-05-25T23:43:39.571Z,7.83
2023-05-25T23:46:07.294Z,7.77
2023-05-25T23:48:34.068Z,7.23
2023-05-25T23:51:01.043Z,7.20
2023-05-25T23:53:27.830Z,6.87
2023-05-25T23:55:54.572Z,6.87
2023-05-25T23:58:21.309Z,7.67
